sensor_id;sensor_type;location;lat;lon;timestamp;P1;durP1;ratioP1;P2;durP2;ratioP2
16320;SDS011;8269;50.990;4.494;2022-09-02T00:00:50;10.10;;;4.07;;
16320;SDS011;8269;50.990;4.494;2022-09-02T00:03:19;6.93;;;3.80;;
16320;SDS011;8269;50.990;4.494;2022-09-02T00:05:45;9.43;;;4.20;;
16320;SDS011;8269;50.990;4.494;2022-09-02T00:08:11;7.72;;;3.97;;
16320;SDS011;8269;50.990;4.494;2022-09-02T00:10:39;6.97;;;3.88;;
16320;SDS011;8269;50.990;4.494;2022-09-02T00:13:06;9.07;;;4.00;;
16320;SDS011;8269;50.990;4.494;2022-09-02T00:15:33;9.95;;;4.10;;
16320;SDS011;8269;50.990;4.494;2022-09-02T00:18:00;10.77;;;4.18;;
16320;SDS011;8269;50.990;4.494;2022-09-02T00:20:27;7.20;;;3.90;;
16320;SDS011;8269;50.990;4.494;2022-09-02T00:22:53;8.80;;;4.20;;
16320;SDS011;8269;50.990;4.494;2022-09-02T00:25:19;7.93;;;4.28;;
16320;SDS011;8269;50.990;4.494;2022-09-02T00:27:45;8.20;;;4.15;;
16320;SDS011;8269;50.990;4.494;2022-09-02T00:30:11;7.53;;;4.05;;
16320;SDS011;8269;50.990;4.494;2022-09-02T00:32:37;8.25;;;3.85;;
16320;SDS011;8269;50.990;4.494;2022-09-02T00:35:03;10.30;;;3.90;;
16320;SDS011;8269;50.990;4.494;2022-09-02T00:37:29;9.73;;;3.80;;
16320;SDS011;8269;50.990;4.494;2022-09-02T00:39:55;10.18;;;3.78;;
16320;SDS011;8269;50.990;4.494;2022-09-02T00:42:22;6.95;;;3.75;;
16320;SDS011;8269;50.990;4.494;2022-09-02T00:44:50;9.93;;;3.85;;
16320;SDS011;8269;50.990;4.494;2022-09-02T00:47:16;9.93;;;4.10;;
16320;SDS011;8269;50.990;4.494;2022-09-02T00:49:43;10.77;;;3.95;;
16320;SDS011;8269;50.990;4.494;2022-09-02T00:54:54;6.47;;;3.78;;
16320;SDS011;8269;50.990;4.494;2022-09-02T00:57:24;7.45;;;3.70;;
16320;SDS011;8269;50.990;4.494;2022-09-02T01:02:26;6.63;;;3.67;;
16320;SDS011;8269;50.990;4.494;2022-09-02T01:04:55;8.35;;;3.75;;
16320;SDS011;8269;50.990;4.494;2022-09-02T01:07:23;5.55;;;3.33;;
16320;SDS011;8269;50.990;4.494;2022-09-02T01:09:54;7.47;;;4.00;;
16320;SDS011;8269;50.990;4.494;2022-09-02T01:12:22;7.45;;;3.80;;
16320;SDS011;8269;50.990;4.494;2022-09-02T01:14:49;9.02;;;4.03;;
16320;SDS011;8269;50.990;4.494;2022-09-02T01:17:14;10.27;;;3.70;;
16320;SDS011;8269;50.990;4.494;2022-09-02T01:19:47;8.43;;;3.70;;
16320;SDS011;8269;50.990;4.494;2022-09-02T01:22:18;6.40;;;3.35;;
16320;SDS011;8269;50.990;4.494;2022-09-02T01:24:46;6.70;;;3.70;;
16320;SDS011;8269;50.990;4.494;2022-09-02T01:27:16;9.65;;;3.80;;
16320;SDS011;8269;50.990;4.494;2022-09-02T01:29:44;8.10;;;3.50;;
16320;SDS011;8269;50.990;4.494;2022-09-02T01:32:10;6.28;;;3.67;;
16320;SDS011;8269;50.990;4.494;2022-09-02T01:34:36;7.25;;;3.78;;
16320;SDS011;8269;50.990;4.494;2022-09-02T01:37:02;10.57;;;3.85;;
16320;SDS011;8269;50.990;4.494;2022-09-02T01:39:28;7.10;;;3.70;;
16320;SDS011;8269;50.990;4.494;2022-09-02T01:41:54;6.55;;;3.78;;
16320;SDS011;8269;50.990;4.494;2022-09-02T01:44:20;8.50;;;3.60;;
16320;SDS011;8269;50.990;4.494;2022-09-02T01:46:45;7.93;;;3.85;;
16320;SDS011;8269;50.990;4.494;2022-09-02T01:49:11;9.13;;;4.18;;
16320;SDS011;8269;50.990;4.494;2022-09-02T01:51:37;7.18;;;3.80;;
16320;SDS011;8269;50.990;4.494;2022-09-02T01:54:03;6.55;;;3.67;;
16320;SDS011;8269;50.990;4.494;2022-09-02T01:56:29;9.20;;;3.65;;
16320;SDS011;8269;50.990;4.494;2022-09-02T01:58:55;9.30;;;3.80;;
16320;SDS011;8269;50.990;4.494;2022-09-02T02:01:21;10.30;;;3.58;;
16320;SDS011;8269;50.990;4.494;2022-09-02T02:03:47;4.95;;;3.40;;
16320;SDS011;8269;50.990;4.494;2022-09-02T02:06:13;8.63;;;3.80;;
16320;SDS011;8269;50.990;4.494;2022-09-02T02:08:40;8.98;;;3.47;;
16320;SDS011;8269;50.990;4.494;2022-09-02T02:11:06;7.88;;;3.70;;
16320;SDS011;8269;50.990;4.494;2022-09-02T02:13:33;8.43;;;3.80;;
16320;SDS011;8269;50.990;4.494;2022-09-02T02:15:59;8.10;;;3.90;;
16320;SDS011;8269;50.990;4.494;2022-09-02T02:18:25;6.45;;;3.88;;
16320;SDS011;8269;50.990;4.494;2022-09-02T02:20:51;6.20;;;3.50;;
16320;SDS011;8269;50.990;4.494;2022-09-02T02:23:16;7.70;;;3.95;;
16320;SDS011;8269;50.990;4.494;2022-09-02T02:25:42;7.47;;;3.50;;
16320;SDS011;8269;50.990;4.494;2022-09-02T02:28:08;8.50;;;3.72;;
16320;SDS011;8269;50.990;4.494;2022-09-02T02:30:34;6.82;;;3.63;;
16320;SDS011;8269;50.990;4.494;2022-09-02T02:33:00;7.82;;;4.20;;
16320;SDS011;8269;50.990;4.494;2022-09-02T02:35:25;7.75;;;4.05;;
16320;SDS011;8269;50.990;4.494;2022-09-02T02:37:51;6.15;;;4.00;;
16320;SDS011;8269;50.990;4.494;2022-09-02T02:40:18;7.07;;;3.67;;
16320;SDS011;8269;50.990;4.494;2022-09-02T02:42:46;7.78;;;3.78;;
16320;SDS011;8269;50.990;4.494;2022-09-02T02:45:13;8.88;;;3.95;;
16320;SDS011;8269;50.990;4.494;2022-09-02T02:47:39;6.90;;;3.65;;
16320;SDS011;8269;50.990;4.494;2022-09-02T02:50:07;8.93;;;4.30;;
16320;SDS011;8269;50.990;4.494;2022-09-02T02:52:35;9.02;;;3.72;;
16320;SDS011;8269;50.990;4.494;2022-09-02T02:55:06;7.03;;;3.70;;
16320;SDS011;8269;50.990;4.494;2022-09-02T02:57:33;6.85;;;4.00;;
16320;SDS011;8269;50.990;4.494;2022-09-02T03:02:59;6.07;;;3.60;;
16320;SDS011;8269;50.990;4.494;2022-09-02T03:05:29;7.18;;;3.60;;
16320;SDS011;8269;50.990;4.494;2022-09-02T03:07:55;8.55;;;4.13;;
16320;SDS011;8269;50.990;4.494;2022-09-02T03:10:21;7.20;;;3.90;;
16320;SDS011;8269;50.990;4.494;2022-09-02T03:12:48;8.48;;;3.90;;
16320;SDS011;8269;50.990;4.494;2022-09-02T03:15:15;7.70;;;3.80;;
16320;SDS011;8269;50.990;4.494;2022-09-02T03:17:46;10.23;;;3.80;;
16320;SDS011;8269;50.990;4.494;2022-09-02T03:20:13;8.75;;;3.90;;
16320;SDS011;8269;50.990;4.494;2022-09-02T03:22:40;8.57;;;3.97;;
16320;SDS011;8269;50.990;4.494;2022-09-02T03:25:08;8.80;;;3.70;;
16320;SDS011;8269;50.990;4.494;2022-09-02T03:27:38;9.80;;;4.00;;
16320;SDS011;8269;50.990;4.494;2022-09-02T03:30:08;5.32;;;3.85;;
16320;SDS011;8269;50.990;4.494;2022-09-02T03:32:35;8.93;;;3.95;;
16320;SDS011;8269;50.990;4.494;2022-09-02T03:35:02;8.02;;;4.28;;
16320;SDS011;8269;50.990;4.494;2022-09-02T03:37:34;8.07;;;3.90;;
16320;SDS011;8269;50.990;4.494;2022-09-02T03:40:04;7.90;;;3.92;;
16320;SDS011;8269;50.990;4.494;2022-09-02T03:42:31;8.85;;;4.10;;
16320;SDS011;8269;50.990;4.494;2022-09-02T03:44:57;8.05;;;3.67;;
16320;SDS011;8269;50.990;4.494;2022-09-02T03:47:23;9.13;;;3.83;;
16320;SDS011;8269;50.990;4.494;2022-09-02T03:49:49;6.90;;;4.20;;
16320;SDS011;8269;50.990;4.494;2022-09-02T03:52:14;10.20;;;4.22;;
16320;SDS011;8269;50.990;4.494;2022-09-02T03:54:41;9.43;;;3.88;;
16320;SDS011;8269;50.990;4.494;2022-09-02T03:57:06;8.80;;;4.15;;
16320;SDS011;8269;50.990;4.494;2022-09-02T03:59:32;8.45;;;4.13;;
16320;SDS011;8269;50.990;4.494;2022-09-02T04:01:59;9.95;;;4.00;;
16320;SDS011;8269;50.990;4.494;2022-09-02T04:04:27;8.50;;;3.88;;
16320;SDS011;8269;50.990;4.494;2022-09-02T04:06:53;6.68;;;3.95;;
16320;SDS011;8269;50.990;4.494;2022-09-02T04:09:19;10.05;;;4.13;;
16320;SDS011;8269;50.990;4.494;2022-09-02T04:11:46;6.20;;;4.07;;
16320;SDS011;8269;50.990;4.494;2022-09-02T04:14:12;10.60;;;4.03;;
16320;SDS011;8269;50.990;4.494;2022-09-02T04:16:37;6.40;;;4.18;;
16320;SDS011;8269;50.990;4.494;2022-09-02T04:19:03;5.72;;;3.75;;
16320;SDS011;8269;50.990;4.494;2022-09-02T04:21:31;6.57;;;4.22;;
16320;SDS011;8269;50.990;4.494;2022-09-02T04:23:58;12.43;;;5.07;;
16320;SDS011;8269;50.990;4.494;2022-09-02T04:26:24;12.48;;;4.88;;
16320;SDS011;8269;50.990;4.494;2022-09-02T04:28:50;10.50;;;4.60;;
16320;SDS011;8269;50.990;4.494;2022-09-02T04:31:18;12.23;;;4.63;;
16320;SDS011;8269;50.990;4.494;2022-09-02T04:33:45;13.85;;;4.90;;
16320;SDS011;8269;50.990;4.494;2022-09-02T04:36:12;10.20;;;4.93;;
16320;SDS011;8269;50.990;4.494;2022-09-02T04:38:40;13.77;;;4.90;;
16320;SDS011;8269;50.990;4.494;2022-09-02T04:41:07;11.05;;;5.05;;
16320;SDS011;8269;50.990;4.494;2022-09-02T04:43:38;12.07;;;4.47;;
16320;SDS011;8269;50.990;4.494;2022-09-02T04:46:05;9.20;;;4.88;;
16320;SDS011;8269;50.990;4.494;2022-09-02T04:48:32;10.10;;;4.60;;
16320;SDS011;8269;50.990;4.494;2022-09-02T04:51:02;12.35;;;4.70;;
16320;SDS011;8269;50.990;4.494;2022-09-02T04:53:42;11.38;;;5.53;;
16320;SDS011;8269;50.990;4.494;2022-09-02T04:56:09;11.95;;;4.50;;
16320;SDS011;8269;50.990;4.494;2022-09-02T04:58:39;12.63;;;4.75;;
16320;SDS011;8269;50.990;4.494;2022-09-02T05:01:06;13.10;;;4.47;;
16320;SDS011;8269;50.990;4.494;2022-09-02T05:03:34;9.60;;;4.70;;
16320;SDS011;8269;50.990;4.494;2022-09-02T05:06:01;6.60;;;4.82;;
16320;SDS011;8269;50.990;4.494;2022-09-02T05:08:32;9.15;;;4.68;;
16320;SDS011;8269;50.990;4.494;2022-09-02T05:11:00;9.90;;;4.55;;
16320;SDS011;8269;50.990;4.494;2022-09-02T05:13:31;10.48;;;4.55;;
16320;SDS011;8269;50.990;4.494;2022-09-02T05:15:57;12.02;;;4.68;;
16320;SDS011;8269;50.990;4.494;2022-09-02T05:18:22;13.48;;;5.10;;
16320;SDS011;8269;50.990;4.494;2022-09-02T05:20:48;7.95;;;4.78;;
16320;SDS011;8269;50.990;4.494;2022-09-02T05:23:14;19.40;;;5.22;;
16320;SDS011;8269;50.990;4.494;2022-09-02T05:25:40;11.40;;;5.05;;
16320;SDS011;8269;50.990;4.494;2022-09-02T05:28:05;16.80;;;5.60;;
16320;SDS011;8269;50.990;4.494;2022-09-02T05:30:35;10.60;;;4.30;;
16320;SDS011;8269;50.990;4.494;2022-09-02T05:33:03;13.30;;;4.80;;
16320;SDS011;8269;50.990;4.494;2022-09-02T05:35:29;12.57;;;5.60;;
16320;SDS011;8269;50.990;4.494;2022-09-02T05:37:55;10.23;;;4.93;;
16320;SDS011;8269;50.990;4.494;2022-09-02T05:40:21;11.15;;;4.47;;
16320;SDS011;8269;50.990;4.494;2022-09-02T05:42:46;12.80;;;5.10;;
16320;SDS011;8269;50.990;4.494;2022-09-02T05:45:12;13.20;;;4.70;;
16320;SDS011;8269;50.990;4.494;2022-09-02T05:47:38;14.38;;;4.93;;
16320;SDS011;8269;50.990;4.494;2022-09-02T05:50:04;16.33;;;5.47;;
16320;SDS011;8269;50.990;4.494;2022-09-02T05:52:30;16.73;;;5.28;;
16320;SDS011;8269;50.990;4.494;2022-09-02T05:54:56;13.40;;;5.10;;
16320;SDS011;8269;50.990;4.494;2022-09-02T05:57:23;12.10;;;4.63;;
16320;SDS011;8269;50.990;4.494;2022-09-02T05:59:49;14.07;;;5.50;;
16320;SDS011;8269;50.990;4.494;2022-09-02T06:02:20;11.23;;;4.70;;
16320;SDS011;8269;50.990;4.494;2022-09-02T06:04:48;19.05;;;5.60;;
16320;SDS011;8269;50.990;4.494;2022-09-02T06:07:16;12.80;;;5.15;;
16320;SDS011;8269;50.990;4.494;2022-09-02T06:09:43;16.75;;;5.40;;
16320;SDS011;8269;50.990;4.494;2022-09-02T06:12:10;18.10;;;5.80;;
16320;SDS011;8269;50.990;4.494;2022-09-02T06:14:37;12.82;;;5.05;;
16320;SDS011;8269;50.990;4.494;2022-09-02T06:17:03;20.00;;;5.10;;
16320;SDS011;8269;50.990;4.494;2022-09-02T06:19:29;13.20;;;4.82;;
16320;SDS011;8269;50.990;4.494;2022-09-02T06:21:56;11.18;;;5.05;;
16320;SDS011;8269;50.990;4.494;2022-09-02T06:24:23;12.75;;;4.70;;
16320;SDS011;8269;50.990;4.494;2022-09-02T06:26:50;13.68;;;5.20;;
16320;SDS011;8269;50.990;4.494;2022-09-02T06:29:17;17.20;;;5.25;;
16320;SDS011;8269;50.990;4.494;2022-09-02T06:31:45;20.42;;;5.63;;
16320;SDS011;8269;50.990;4.494;2022-09-02T06:34:12;18.10;;;5.28;;
16320;SDS011;8269;50.990;4.494;2022-09-02T06:36:41;16.75;;;5.75;;
16320;SDS011;8269;50.990;4.494;2022-09-02T06:39:09;14.43;;;5.57;;
16320;SDS011;8269;50.990;4.494;2022-09-02T06:41:37;17.00;;;5.65;;
16320;SDS011;8269;50.990;4.494;2022-09-02T06:44:04;13.70;;;5.00;;
16320;SDS011;8269;50.990;4.494;2022-09-02T06:46:33;16.10;;;4.68;;
16320;SDS011;8269;50.990;4.494;2022-09-02T06:49:00;19.52;;;5.40;;
16320;SDS011;8269;50.990;4.494;2022-09-02T06:51:28;17.08;;;5.38;;
16320;SDS011;8269;50.990;4.494;2022-09-02T06:53:56;13.20;;;5.63;;
16320;SDS011;8269;50.990;4.494;2022-09-02T06:56:22;10.07;;;5.00;;
16320;SDS011;8269;50.990;4.494;2022-09-02T06:58:48;14.57;;;5.13;;
16320;SDS011;8269;50.990;4.494;2022-09-02T07:01:21;12.18;;;4.70;;
16320;SDS011;8269;50.990;4.494;2022-09-02T07:03:48;11.05;;;4.53;;
16320;SDS011;8269;50.990;4.494;2022-09-02T07:06:36;13.98;;;5.13;;
16320;SDS011;8269;50.990;4.494;2022-09-02T07:09:08;20.25;;;5.35;;
16320;SDS011;8269;50.990;4.494;2022-09-02T07:11:37;9.23;;;4.53;;
16320;SDS011;8269;50.990;4.494;2022-09-02T07:14:04;10.65;;;4.18;;
16320;SDS011;8269;50.990;4.494;2022-09-02T07:16:32;13.55;;;4.45;;
16320;SDS011;8269;50.990;4.494;2022-09-02T07:19:01;8.55;;;4.03;;
16320;SDS011;8269;50.990;4.494;2022-09-02T07:21:28;9.63;;;3.90;;
16320;SDS011;8269;50.990;4.494;2022-09-02T07:23:56;47.55;;;8.20;;
16320;SDS011;8269;50.990;4.494;2022-09-02T07:26:24;34.40;;;6.70;;
16320;SDS011;8269;50.990;4.494;2022-09-02T07:28:50;11.70;;;4.15;;
16320;SDS011;8269;50.990;4.494;2022-09-02T07:31:16;9.05;;;4.05;;
16320;SDS011;8269;50.990;4.494;2022-09-02T07:33:43;10.77;;;4.38;;
16320;SDS011;8269;50.990;4.494;2022-09-02T07:36:10;9.65;;;3.83;;
16320;SDS011;8269;50.990;4.494;2022-09-02T07:38:37;7.68;;;3.95;;
16320;SDS011;8269;50.990;4.494;2022-09-02T07:41:04;12.10;;;4.60;;
16320;SDS011;8269;50.990;4.494;2022-09-02T07:43:31;10.40;;;4.30;;
16320;SDS011;8269;50.990;4.494;2022-09-02T07:45:57;11.32;;;4.00;;
16320;SDS011;8269;50.990;4.494;2022-09-02T07:48:25;10.25;;;4.13;;
16320;SDS011;8269;50.990;4.494;2022-09-02T07:50:51;10.20;;;4.40;;
16320;SDS011;8269;50.990;4.494;2022-09-02T07:53:17;6.57;;;3.92;;
16320;SDS011;8269;50.990;4.494;2022-09-02T07:55:44;8.35;;;4.00;;
16320;SDS011;8269;50.990;4.494;2022-09-02T07:58:10;12.48;;;3.83;;
16320;SDS011;8269;50.990;4.494;2022-09-02T08:00:36;16.27;;;4.55;;
16320;SDS011;8269;50.990;4.494;2022-09-02T08:03:02;7.47;;;3.45;;
16320;SDS011;8269;50.990;4.494;2022-09-02T08:05:29;7.68;;;3.90;;
16320;SDS011;8269;50.990;4.494;2022-09-02T08:07:56;5.70;;;4.10;;
16320;SDS011;8269;50.990;4.494;2022-09-02T08:10:22;8.38;;;4.05;;
16320;SDS011;8269;50.990;4.494;2022-09-02T08:12:49;9.13;;;3.80;;
16320;SDS011;8269;50.990;4.494;2022-09-02T08:15:16;7.85;;;3.70;;
16320;SDS011;8269;50.990;4.494;2022-09-02T08:17:43;6.35;;;3.67;;
16320;SDS011;8269;50.990;4.494;2022-09-02T08:20:11;8.43;;;3.85;;
16320;SDS011;8269;50.990;4.494;2022-09-02T08:22:37;7.68;;;4.18;;
16320;SDS011;8269;50.990;4.494;2022-09-02T08:25:04;9.20;;;3.42;;
16320;SDS011;8269;50.990;4.494;2022-09-02T08:27:30;6.72;;;3.30;;
16320;SDS011;8269;50.990;4.494;2022-09-02T08:29:56;12.88;;;4.13;;
16320;SDS011;8269;50.990;4.494;2022-09-02T08:32:23;9.77;;;3.67;;
16320;SDS011;8269;50.990;4.494;2022-09-02T08:34:49;9.77;;;4.35;;
16320;SDS011;8269;50.990;4.494;2022-09-02T08:37:15;6.97;;;3.70;;
16320;SDS011;8269;50.990;4.494;2022-09-02T08:39:43;10.10;;;4.10;;
16320;SDS011;8269;50.990;4.494;2022-09-02T08:44:57;6.82;;;3.72;;
16320;SDS011;8269;50.990;4.494;2022-09-02T08:47:30;10.45;;;3.75;;
16320;SDS011;8269;50.990;4.494;2022-09-02T08:49:59;6.55;;;3.72;;
16320;SDS011;8269;50.990;4.494;2022-09-02T08:55:33;6.53;;;3.65;;
16320;SDS011;8269;50.990;4.494;2022-09-02T08:58:18;6.57;;;3.65;;
16320;SDS011;8269;50.990;4.494;2022-09-02T09:01:08;6.35;;;3.58;;
16320;SDS011;8269;50.990;4.494;2022-09-02T09:09:19;8.63;;;3.85;;
16320;SDS011;8269;50.990;4.494;2022-09-02T09:12:04;8.30;;;4.10;;
16320;SDS011;8269;50.990;4.494;2022-09-02T09:14:40;8.02;;;3.80;;
16320;SDS011;8269;50.990;4.494;2022-09-02T09:17:33;7.80;;;3.50;;
16320;SDS011;8269;50.990;4.494;2022-09-02T09:20:19;5.82;;;3.70;;
16320;SDS011;8269;50.990;4.494;2022-09-02T09:22:48;6.43;;;3.53;;
16320;SDS011;8269;50.990;4.494;2022-09-02T09:25:16;8.68;;;4.03;;
16320;SDS011;8269;50.990;4.494;2022-09-02T09:27:42;5.72;;;3.90;;
16320;SDS011;8269;50.990;4.494;2022-09-02T09:30:12;9.63;;;4.32;;
16320;SDS011;8269;50.990;4.494;2022-09-02T09:32:51;4.32;;;3.92;;
16320;SDS011;8269;50.990;4.494;2022-09-02T09:35:21;9.75;;;3.97;;
16320;SDS011;8269;50.990;4.494;2022-09-02T09:37:51;5.57;;;3.85;;
16320;SDS011;8269;50.990;4.494;2022-09-02T09:42:44;6.55;;;4.00;;
16320;SDS011;8269;50.990;4.494;2022-09-02T09:45:16;7.80;;;4.25;;
16320;SDS011;8269;50.990;4.494;2022-09-02T09:47:54;7.20;;;3.80;;
16320;SDS011;8269;50.990;4.494;2022-09-02T09:50:31;8.73;;;4.40;;
16320;SDS011;8269;50.990;4.494;2022-09-02T09:56:06;8.27;;;4.03;;
16320;SDS011;8269;50.990;4.494;2022-09-02T09:58:48;6.68;;;4.00;;
16320;SDS011;8269;50.990;4.494;2022-09-02T10:01:19;7.38;;;3.75;;
16320;SDS011;8269;50.990;4.494;2022-09-02T10:06:37;10.35;;;3.90;;
16320;SDS011;8269;50.990;4.494;2022-09-02T10:14:42;6.13;;;3.75;;
16320;SDS011;8269;50.990;4.494;2022-09-02T10:17:25;7.18;;;3.78;;
16320;SDS011;8269;50.990;4.494;2022-09-02T10:20:02;8.90;;;3.72;;
16320;SDS011;8269;50.990;4.494;2022-09-02T10:25:46;7.25;;;3.97;;
16320;SDS011;8269;50.990;4.494;2022-09-02T10:28:25;4.75;;;3.25;;
16320;SDS011;8269;50.990;4.494;2022-09-02T10:31:18;8.80;;;4.32;;
16320;SDS011;8269;50.990;4.494;2022-09-02T10:41:57;7.32;;;3.35;;
16320;SDS011;8269;50.990;4.494;2022-09-02T10:44:45;8.45;;;3.42;;
16320;SDS011;8269;50.990;4.494;2022-09-02T10:55:29;5.70;;;2.65;;
16320;SDS011;8269;50.990;4.494;2022-09-02T10:58:13;7.55;;;2.60;;
16320;SDS011;8269;50.990;4.494;2022-09-02T11:00:43;6.22;;;2.80;;
16320;SDS011;8269;50.990;4.494;2022-09-02T11:06:24;5.93;;;2.63;;
16320;SDS011;8269;50.990;4.494;2022-09-02T11:09:00;4.10;;;2.60;;
16320;SDS011;8269;50.990;4.494;2022-09-02T11:14:14;2.67;;;2.17;;
16320;SDS011;8269;50.990;4.494;2022-09-02T11:16:51;5.15;;;2.42;;
16320;SDS011;8269;50.990;4.494;2022-09-02T11:22:26;6.28;;;3.13;;
16320;SDS011;8269;50.990;4.494;2022-09-02T11:25:08;5.43;;;2.65;;
16320;SDS011;8269;50.990;4.494;2022-09-02T11:27:37;4.60;;;2.58;;
16320;SDS011;8269;50.990;4.494;2022-09-02T11:30:14;7.47;;;2.70;;
16320;SDS011;8269;50.990;4.494;2022-09-02T11:32:49;4.78;;;2.55;;
16320;SDS011;8269;50.990;4.494;2022-09-02T11:35:37;4.28;;;2.30;;
16320;SDS011;8269;50.990;4.494;2022-09-02T11:38:16;4.38;;;2.10;;
16320;SDS011;8269;50.990;4.494;2022-09-02T11:54:01;5.10;;;2.15;;
16320;SDS011;8269;50.990;4.494;2022-09-02T11:56:30;4.32;;;2.30;;
16320;SDS011;8269;50.990;4.494;2022-09-02T11:59:01;4.18;;;2.22;;
16320;SDS011;8269;50.990;4.494;2022-09-02T12:01:37;3.78;;;2.40;;
16320;SDS011;8269;50.990;4.494;2022-09-02T12:06:36;4.43;;;2.30;;
16320;SDS011;8269;50.990;4.494;2022-09-02T12:23:02;4.78;;;2.20;;
16320;SDS011;8269;50.990;4.494;2022-09-02T12:28:16;3.50;;;1.90;;
16320;SDS011;8269;50.990;4.494;2022-09-02T12:36:05;3.85;;;2.20;;
16320;SDS011;8269;50.990;4.494;2022-09-02T12:38:32;4.45;;;1.90;;
16320;SDS011;8269;50.990;4.494;2022-09-02T12:49:05;4.57;;;2.00;;
16320;SDS011;8269;50.990;4.494;2022-09-02T12:57:01;4.25;;;2.08;;
16320;SDS011;8269;50.990;4.494;2022-09-02T12:59:37;3.63;;;2.22;;
16320;SDS011;8269;50.990;4.494;2022-09-02T13:02:09;4.93;;;2.22;;
16320;SDS011;8269;50.990;4.494;2022-09-02T13:16:55;6.18;;;2.00;;
16320;SDS011;8269;50.990;4.494;2022-09-02T13:22:39;4.35;;;2.20;;
16320;SDS011;8269;50.990;4.494;2022-09-02T13:28:15;4.63;;;1.90;;
16320;SDS011;8269;50.990;4.494;2022-09-02T13:31:01;5.18;;;2.13;;
16320;SDS011;8269;50.990;4.494;2022-09-02T13:33:34;4.00;;;2.00;;
16320;SDS011;8269;50.990;4.494;2022-09-02T13:36:00;6.47;;;2.10;;
16320;SDS011;8269;50.990;4.494;2022-09-02T13:38:27;3.20;;;1.80;;
16320;SDS011;8269;50.990;4.494;2022-09-02T13:40:54;5.30;;;2.20;;
16320;SDS011;8269;50.990;4.494;2022-09-02T13:43:21;5.18;;;2.10;;
16320;SDS011;8269;50.990;4.494;2022-09-02T13:45:49;3.88;;;1.90;;
16320;SDS011;8269;50.990;4.494;2022-09-02T13:48:20;4.38;;;1.92;;
16320;SDS011;8269;50.990;4.494;2022-09-02T13:50:49;2.47;;;1.83;;
16320;SDS011;8269;50.990;4.494;2022-09-02T13:56:05;4.07;;;1.80;;
16320;SDS011;8269;50.990;4.494;2022-09-02T13:58:34;2.20;;;1.70;;
16320;SDS011;8269;50.990;4.494;2022-09-02T14:04:05;2.78;;;2.17;;
16320;SDS011;8269;50.990;4.494;2022-09-02T14:06:37;2.67;;;1.60;;
16320;SDS011;8269;50.990;4.494;2022-09-02T14:09:05;9.05;;;2.47;;
16320;SDS011;8269;50.990;4.494;2022-09-02T14:11:37;3.13;;;1.65;;
16320;SDS011;8269;50.990;4.494;2022-09-02T14:14:05;5.50;;;1.80;;
16320;SDS011;8269;50.990;4.494;2022-09-02T14:16:32;2.42;;;1.55;;
16320;SDS011;8269;50.990;4.494;2022-09-02T14:19:21;3.42;;;2.22;;
16320;SDS011;8269;50.990;4.494;2022-09-02T14:21:49;11.98;;;2.30;;
16320;SDS011;8269;50.990;4.494;2022-09-02T14:24:17;6.15;;;1.90;;
16320;SDS011;8269;50.990;4.494;2022-09-02T14:26:46;4.32;;;1.70;;
16320;SDS011;8269;50.990;4.494;2022-09-02T14:29:14;6.50;;;2.08;;
16320;SDS011;8269;50.990;4.494;2022-09-02T14:31:41;6.47;;;2.30;;
16320;SDS011;8269;50.990;4.494;2022-09-02T14:36:56;3.85;;;1.60;;
16320;SDS011;8269;50.990;4.494;2022-09-02T14:39:22;5.43;;;2.00;;
16320;SDS011;8269;50.990;4.494;2022-09-02T14:41:48;5.32;;;2.00;;
16320;SDS011;8269;50.990;4.494;2022-09-02T14:44:27;5.78;;;2.33;;
16320;SDS011;8269;50.990;4.494;2022-09-02T14:46:58;3.83;;;1.60;;
16320;SDS011;8269;50.990;4.494;2022-09-02T14:49:27;5.97;;;2.83;;
16320;SDS011;8269;50.990;4.494;2022-09-02T14:51:57;3.47;;;1.90;;
16320;SDS011;8269;50.990;4.494;2022-09-02T14:56:59;5.40;;;2.28;;
16320;SDS011;8269;50.990;4.494;2022-09-02T14:59:25;4.90;;;2.25;;
16320;SDS011;8269;50.990;4.494;2022-09-02T15:01:51;3.45;;;2.08;;
16320;SDS011;8269;50.990;4.494;2022-09-02T15:04:22;4.55;;;1.92;;
16320;SDS011;8269;50.990;4.494;2022-09-02T15:06:48;7.78;;;2.00;;
16320;SDS011;8269;50.990;4.494;2022-09-02T15:09:15;3.70;;;1.92;;
16320;SDS011;8269;50.990;4.494;2022-09-02T15:11:46;4.20;;;2.05;;
16320;SDS011;8269;50.990;4.494;2022-09-02T15:14:17;3.30;;;1.95;;
16320;SDS011;8269;50.990;4.494;2022-09-02T15:16:43;4.78;;;2.03;;
16320;SDS011;8269;50.990;4.494;2022-09-02T15:19:08;3.53;;;2.05;;
16320;SDS011;8269;50.990;4.494;2022-09-02T15:21:34;4.38;;;2.10;;
16320;SDS011;8269;50.990;4.494;2022-09-02T15:24:00;4.05;;;2.30;;
16320;SDS011;8269;50.990;4.494;2022-09-02T15:26:25;4.75;;;1.98;;
16320;SDS011;8269;50.990;4.494;2022-09-02T15:28:51;6.68;;;2.00;;
16320;SDS011;8269;50.990;4.494;2022-09-02T15:31:17;3.97;;;1.83;;
16320;SDS011;8269;50.990;4.494;2022-09-02T15:33:50;3.50;;;1.90;;
16320;SDS011;8269;50.990;4.494;2022-09-02T15:36:16;2.33;;;1.83;;
16320;SDS011;8269;50.990;4.494;2022-09-02T15:38:43;3.53;;;1.80;;
16320;SDS011;8269;50.990;4.494;2022-09-02T15:41:18;6.28;;;1.85;;
16320;SDS011;8269;50.990;4.494;2022-09-02T15:43:46;6.65;;;2.50;;
16320;SDS011;8269;50.990;4.494;2022-09-02T15:46:25;6.43;;;2.03;;
16320;SDS011;8269;50.990;4.494;2022-09-02T15:48:53;4.10;;;2.03;;
16320;SDS011;8269;50.990;4.494;2022-09-02T15:51:20;6.05;;;2.05;;
16320;SDS011;8269;50.990;4.494;2022-09-02T15:53:57;5.80;;;2.45;;
16320;SDS011;8269;50.990;4.494;2022-09-02T15:56:26;7.18;;;2.03;;
16320;SDS011;8269;50.990;4.494;2022-09-02T15:58:54;7.20;;;2.03;;
16320;SDS011;8269;50.990;4.494;2022-09-02T16:01:24;3.10;;;1.80;;
16320;SDS011;8269;50.990;4.494;2022-09-02T16:03:58;7.00;;;2.20;;
16320;SDS011;8269;50.990;4.494;2022-09-02T16:06:25;5.13;;;1.90;;
16320;SDS011;8269;50.990;4.494;2022-09-02T16:08:51;5.05;;;2.03;;
16320;SDS011;8269;50.990;4.494;2022-09-02T16:11:17;5.32;;;1.77;;
16320;SDS011;8269;50.990;4.494;2022-09-02T16:13:43;4.15;;;2.00;;
16320;SDS011;8269;50.990;4.494;2022-09-02T16:16:10;4.43;;;1.98;;
16320;SDS011;8269;50.990;4.494;2022-09-02T16:18:37;3.17;;;1.88;;
16320;SDS011;8269;50.990;4.494;2022-09-02T16:21:04;2.85;;;1.90;;
16320;SDS011;8269;50.990;4.494;2022-09-02T16:23:30;5.50;;;2.00;;
16320;SDS011;8269;50.990;4.494;2022-09-02T16:28:43;5.50;;;1.95;;
16320;SDS011;8269;50.990;4.494;2022-09-02T16:31:10;4.43;;;2.25;;
16320;SDS011;8269;50.990;4.494;2022-09-02T16:33:37;6.00;;;2.17;;
16320;SDS011;8269;50.990;4.494;2022-09-02T16:36:06;4.80;;;2.10;;
16320;SDS011;8269;50.990;4.494;2022-09-02T16:38:32;4.28;;;2.33;;
16320;SDS011;8269;50.990;4.494;2022-09-02T16:40:58;4.25;;;2.25;;
16320;SDS011;8269;50.990;4.494;2022-09-02T16:43:24;4.93;;;2.10;;
16320;SDS011;8269;50.990;4.494;2022-09-02T16:45:51;3.35;;;2.28;;
16320;SDS011;8269;50.990;4.494;2022-09-02T16:48:20;2.95;;;2.00;;
16320;SDS011;8269;50.990;4.494;2022-09-02T16:50:47;5.97;;;2.13;;
16320;SDS011;8269;50.990;4.494;2022-09-02T16:53:13;4.20;;;2.30;;
16320;SDS011;8269;50.990;4.494;2022-09-02T16:55:41;5.15;;;2.20;;
16320;SDS011;8269;50.990;4.494;2022-09-02T16:58:07;5.18;;;2.28;;
16320;SDS011;8269;50.990;4.494;2022-09-02T17:00:35;5.65;;;2.00;;
16320;SDS011;8269;50.990;4.494;2022-09-02T17:03:05;6.57;;;2.42;;
16320;SDS011;8269;50.990;4.494;2022-09-02T17:05:32;3.67;;;2.30;;
16320;SDS011;8269;50.990;4.494;2022-09-02T17:07:58;4.18;;;2.22;;
16320;SDS011;8269;50.990;4.494;2022-09-02T17:10:26;6.63;;;2.35;;
16320;SDS011;8269;50.990;4.494;2022-09-02T17:12:53;5.30;;;2.33;;
16320;SDS011;8269;50.990;4.494;2022-09-02T17:15:19;6.10;;;2.67;;
16320;SDS011;8269;50.990;4.494;2022-09-02T17:17:45;5.00;;;2.30;;
16320;SDS011;8269;50.990;4.494;2022-09-02T17:20:10;4.72;;;2.30;;
16320;SDS011;8269;50.990;4.494;2022-09-02T17:22:37;6.28;;;2.40;;
16320;SDS011;8269;50.990;4.494;2022-09-02T17:25:04;5.05;;;2.30;;
16320;SDS011;8269;50.990;4.494;2022-09-02T17:27:30;5.75;;;2.53;;
16320;SDS011;8269;50.990;4.494;2022-09-02T17:29:57;4.05;;;2.10;;
16320;SDS011;8269;50.990;4.494;2022-09-02T17:32:24;7.40;;;2.30;;